Página principal
METAR-TAF:

METAR-TAF

Aeroportos :

Chongqing, China

Aeroporto Internacional de Chongqing Jiangbei

latitude: 29-31N, longitude: 106-29E, altura: 351 m

Observação actual do tempo

O boletim foi feito há 53 minutos, às 00:00 UTC
Vento 6 kt de nordeste
Temperatura 7°C
Humidade 93%
Pressão 1019 hPa
Visibilidade: 4000 m
neblina

METAR: ZUCK 230000Z 04003MPS 4000 BR NSC 07/06 Q1019 NOSIG

Hora: 08:53 (00:53 UTC)

Previsão

O boletim foi feito há 5 horas e 50 minutos, às 19:03 UTC
Previsão válida de 23 às 00 UTC a 23 às 24 UTC
Vento 6 kt de sul
Visibilidade: 3500 m
Nuvens dispersasa uma altura de 3000 ft
neblina

TAF: ZUCK 221903Z 2300/2324 18003MPS 3500 BR SCT030 TX12/2308Z TN06/2323Z

Observações e previsões do tempo de mais de 4000 aeroportos (mensagens METAR e TAF).

As estações disponíveis são os pontos amarelos e vermelhos sobre o mapa.

Mova o rato sobre o mapa para ver o nome da estação.

Depois clique no ponto para visualizar as observações e previsões meteorológicas.

Para alterar o mapa : clique nos botões verdes com uma cruz preta para aumentar o zoom; no botão verde com uma pitada de zoom; ou nas setas verdes para mapas adjacentes.


METAR-TAF: